LL52 weather

Wilts Airport
Streator, Illinois, United States

Public forecast

Using degrees Fahrenheit for public forecast. Weather courtesy of forecast.io.

METAR (pilot weather report)

Closest report is Illinois Valley Regional Airport-Walter A Duncan Field, 15.0 nm (27.8 km) NW. Retrieved 2019/08/17 23:35 UTC (12 minutes ago):

KVYS 172335Z AUTO 21006KT 10SM CLR 25/20 A2987 RMK AO2 T02470201

TAF (pilot weather forecast)

Closest forecast is Central Illinois Regional Airport at Bloomington-Normal, 41.1 nm (76.1 km) S. Retrieved 2019/08/17 18:39 UTC (5 hours ago):

TAF KBMI 171736Z 1718/1818 18006KT P6SM BKN045 FM180000 16007KT P6SM BKN080 FM180600 19008KT P6SM VCTS BKN035CB FM181400 21012KT P6SM BKN035